Weather observations for the past three days for
MBS International Airport
Metric (Imperial)
Date Time (edt) Wind (kph) Vis. (km) Weather Sky Cond. Temperature (ºC) Relative Humidity Wind Chill (°C) Heat Index (°C) Pressure Precipitation (cm)
Air Dwpt 6 hour altimeter (cm) sea level (mb) 1 hr 3 hr 6 hr
Max. Min.
05 13:53 W 31 G 46 16.09 Fair CLR 14.4 0 15 9.4 38% 75.44 1005.8
05 12:53 W 24 G 37 16.09 A Few Clouds FEW055 13.3 1.7 46% 75.44 1005.7
05 11:53 SW 17 G 31 16.09 Fair CLR 12.8 1.1 45% 75.49 1006.4
05 10:53 W 15 16.09 Fair CLR 11.1 1.7 53% 75.46 1006.2
05 09:53 NW 11 16.09 Mostly Cloudy BKN045 10.6 0.6 50% 75.44 1005.8
05 08:53 NW 17 16.09 Overcast OVC037 10.6 0 48% 75.36 1004.6
05 07:53 N 7 16.09 Mostly Cloudy BKN033 10 3.3 17.2 7.8 63% 9 75.31 1004.1
05 06:53 N 9 16.09 Partly Cloudy SCT032 SCT100 8.3 3.9 74% 7 75.23 1003.1
05 05:53 N 9 16.09 Fair CLR 8.9 5 77% 8 75.16 1002.1
05 04:53 NE 20 16.09 A Few Clouds FEW100 9.4 5.6 77% 7 75.08 1000.9
05 03:53 W 15 16.09 Overcast OVC100 14.4 8.3 67% 74.96 999.1
05 02:53 W 13 16.09 Mostly Cloudy BKN095 15.6 10 70% 74.9 998.4
05 01:53 W 26 G 39 16.09 Fair CLR 16.7 10 21.7 15 65% 74.9 998.2
05 00:53 SW 31 G 46 16.09 Partly Cloudy SCT070 18.3 10 59% 74.85 997.6
04 23:53 SW 9 16.09 A Few Clouds FEW085 FEW110 15.6 7.8 60% 74.8 997.2
04 22:53 SW 28 G 46 16.09 A Few Clouds FEW110 20 8.9 49% 74.75 996.3
04 21:53 S 17 16.09 Fair CLR 18.9 4.4 39% 74.75 996.5
04 20:53 S 17 16.09 Fair CLR 20.6 3.3 32% 74.73 996.1
04 19:53 SW 28 16.09 Fair CLR 21.7 2.8 23.9 21.7 29% 74.75 996.4
04 18:53 SW 31 G 52 16.09 Fair CLR 22.8 2.8 27% 74.8 997.3
04 17:53 SW 37 G 56 16.09 Fair and Breezy CLR 23.3 1.7 24% 74.83 997.6
04 16:53 W 41 G 61 16.09 Fair and Breezy CLR 22.8 0 22% 74.88 998.0
04 15:53 SW 37 G 65 16.09 Fair and Breezy CLR 23.9 -1.1 19% 24 74.88 998.1
04 14:53 SW 46 G 67 16.09 Fair and Windy CLR 23.3 1.1 23% 74.9 998.4
04 13:53 SW 44 G 72 16.09 Fair and Windy CLR 22.8 1.1 22.8 10 24% 74.93 998.9
04 12:53 SW 35 G 61 16.09 Fair and Breezy CLR 21.1 5 35% 75.01 1000.0
04 11:53 SW 33 G 44 16.09 Fair and Breezy CLR 19.4 5.6 41% 75.08 1001.0
04 10:53 SW 20 16.09 Fair CLR 17.2 7.2 52% 75.16 1002.1
04 09:53 SW 24 16.09 Fair CLR 15 6.7 58% 75.18 1002.4
04 08:53 SW 22 G 41 16.09 Fair CLR 12.8 6.7 67% 75.21 1002.5
04 07:53 SW 19 16.09 Fair CLR 10 6.1 10.6 8.3 77% 8 75.23 1002.9
04 06:53 S 15 16.09 Fair CLR 8.3 5 80% 6 75.21 1002.9
04 05:53 SW 13 16.09 Fair CLR 8.3 5 80% 6 75.23 1003.1
04 04:53 SW 13 16.09 Fair CLR 9.4 5 74% 8 75.26 1003.3
04 03:53 SW 17 16.09 Fair CLR 10 5 71% 8 75.26 1003.5
04 02:53 S 19 16.09 Fair CLR 10 4.4 68% 8 75.31 1004.0
04 01:53 S 20 16.09 A Few Clouds FEW085 10.6 4.4 13.9 10 66% 75.36 1004.9
04 00:53 SW 11 16.09 Partly Cloudy FEW039 FEW070 SCT120 10 4.4 68% 9 75.46 1006.0
03 23:53 SW 19 16.09 Partly Cloudy SCT080 10.6 3.9 64% 75.46 1006.2
03 22:53 SW 22 16.09 Fair CLR 11.1 3.9 61% 75.49 1006.5
03 21:53 SW 22 16.09 Fair CLR 11.7 3.3 57% 75.49 1006.6
03 20:53 SW 33 G 52 16.09 Fair and Breezy CLR 12.2 3.3 55% 75.51 1006.9
03 19:53 SW 35 G 56 16.09 Fair and Breezy CLR 13.9 3.3 17.8 13.9 49% 75.49 1006.8
03 18:53 SW 39 G 63 16.09 Mostly Cloudy and Breezy BKN085 14.4 3.3 48% 75.51 1007.0
03 17:53 SW 33 G 54 16.09 Overcast and Breezy OVC070 14.4 2.2 44% 75.57 1007.5
03 16:53 W 43 G 67 16.09 A Few Clouds and Windy FEW065 17.2 1.7 35% 75.54 1007.1
03 15:53 W 39 G 69 16.09 Partly Cloudy and Breezy SCT065 17.2 2.8 38% 75.57 1007.7
03 14:53 SW 37 G 54 16.09 Partly Cloudy and Breezy SCT055 17.2 3.9 41% 75.62 1008.1
03 13:53 SW 35 G 50 16.09 Partly Cloudy and Breezy SCT095 15.6 1.7 15.6 6.1 39% 75.64 1008.8
03 12:53 SW 24 16.09 Overcast SCT060 OVC080 13.9 2.2 45% 75.74 1010.0
03 11:53 W 24 16.09 Mostly Cloudy SCT070 BKN090 12.8 1.7 47% 75.79 1010.8
03 10:53 SW 30 G 41 16.09 Overcast BKN075 OVC090 11.1 0.6 49% 75.82 1011.2
03 09:53 SW 28 G 41 16.09 Mostly Cloudy BKN095 10 0.6 52% 7 75.84 1011.2
03 08:53 SW 19 16.09 Fair CLR 7.8 -0.6 56% 5 75.84 1011.5
03 07:53 SW 24 16.09 Fair CLR 6.1 -1.7 6.1 2.2 58% 2 75.84 1011.6
03 06:53 SW 15 16.09 Fair CLR 3.3 -2.8 65% 0 75.87 1011.7
03 05:53 SW 15 16.09 Fair CLR 3.3 -3.9 60% 0 75.9 1012.1
03 04:53 S 13 16.09 Fair CLR 3.3 -3.9 60% 0 75.95 1012.8
03 03:53 S 11 16.09 Fair CLR 2.2 -3.3 67% -1 76 1013.6
03 02:53 SW 9 16.09 Fair CLR 3.9 -3.3 60% 2 76.02 1014.0
03 01:53 SW 13 16.09 Mostly Cloudy BKN095 3.9 -3.3 9.4 3.3 60% 1 76.07 1014.8
03 00:53 SW 11 16.09 Fair CLR 3.9 -3.3 60% 1 76.1 1014.9
02 23:53 SW 7 16.09 Fair CLR 3.3 -2.8 65% 2 76.1 1015.1
02 22:53 SW 9 16.09 Fair CLR 6.7 -3.3 49% 5 76.12 1015.2
02 21:53 SW 9 16.09 Fair CLR 7.2 -4.4 44% 6 76.12 1015.2
02 20:53 SW 11 16.09 Mostly Cloudy BKN090 8.3 -4.4 41% 7 76.1 1014.9
02 19:53 SW 15 16.09 Partly Cloudy SCT090 9.4 -6.1 10.6 7.8 33% 7 76.07 1014.8
02 18:53 SW 13 16.09 Overcast OVC085 10 -6.7 30% 8 76.1 1015.1
02 17:53 SW 11 16.09 Overcast OVC085 10 -6.7 30% 9 76.12 1015.4
02 16:53 Calm 16.09 Overcast OVC075 8.9 -7.2 32% 76.17 1015.9
02 15:53 W 13 16.09 Overcast OVC080 8.9 -6.7 33% 7 76.23 1016.6
02 14:53 SW 9 16.09 Overcast OVC075 8.9 -6.1 34% 8 76.28 1017.3
Date Time (edt) Wind (kph) Vis. (km) Weather Sky Cond. Air Dwpt Max. Min. Relative Humidity Wind Chill (°C) Heat Index (°C) altimeter (cm) sea level (mb) 1 hr 3 hr 6 hr
6 hour
Temperature (ºC) Pressure Precipitation (cm)